createdAt,value
2023-10-20T00:00:51.005Z,95.48
2023-10-20T00:03:38.400Z,95.59
2023-10-20T00:06:25.804Z,95.54
2023-10-20T00:09:14.925Z,95.69
2023-10-20T00:12:02.487Z,95.64
2023-10-20T00:14:49.622Z,95.90
2023-10-20T00:17:36.930Z,96.02
2023-10-20T00:20:24.417Z,96.28
2023-10-20T00:23:11.585Z,96.26
2023-10-20T00:25:59.366Z,96.67
2023-10-20T00:28:46.533Z,96.83
2023-10-20T00:31:33.855Z,96.89
2023-10-20T00:34:21.078Z,96.78
2023-10-20T00:37:08.266Z,96.51
2023-10-20T00:39:56.226Z,96.68
2023-10-20T00:42:43.569Z,96.90
2023-10-20T00:45:30.945Z,96.74
2023-10-20T00:48:18.259Z,96.82
2023-10-20T00:51:06.349Z,96.50
2023-10-20T00:53:55.924Z,96.64
2023-10-20T00:56:43.297Z,96.93
2023-10-20T00:59:30.457Z,96.77
2023-10-20T01:02:49.867Z,97.00
2023-10-20T01:05:37.729Z,96.98
2023-10-20T01:08:24.981Z,97.02
2023-10-20T01:11:12.451Z,97.04
2023-10-20T01:14:01.461Z,97.46
2023-10-20T01:16:49.245Z,97.22
2023-10-20T01:19:37.749Z,97.12
2023-10-20T01:22:25.370Z,97.12
2023-10-20T01:25:12.675Z,97.15
2023-10-20T01:28:00.244Z,97.40
2023-10-20T01:30:48.133Z,97.30
2023-10-20T01:33:36.007Z,96.83
2023-10-20T01:36:23.313Z,97.09
2023-10-20T01:39:12.078Z,97.06
2023-10-20T01:41:59.233Z,97.12
2023-10-20T01:44:46.342Z,97.18
2023-10-20T01:47:33.581Z,97.27
2023-10-20T01:50:21.277Z,97.23
2023-10-20T01:53:08.564Z,97.27
2023-10-20T01:55:55.775Z,97.35
2023-10-20T01:58:43.031Z,97.34
2023-10-20T02:01:30.653Z,97.26
2023-10-20T02:04:18.360Z,97.14
2023-10-20T02:07:05.487Z,97.37
2023-10-20T02:09:52.634Z,97.22
2023-10-20T02:12:39.828Z,97.46
2023-10-20T02:15:27.145Z,97.60
2023-10-20T02:18:15.553Z,97.71
2023-10-20T02:21:04.249Z,97.44
2023-10-20T02:23:51.491Z,97.78
2023-10-20T02:26:39.561Z,97.81
2023-10-20T02:29:27.010Z,97.95
2023-10-20T02:32:14.422Z,97.90
2023-10-20T02:35:01.975Z,97.79
2023-10-20T02:37:49.679Z,97.69
2023-10-20T02:40:37.013Z,97.87
2023-10-20T02:43:24.866Z,98.22
2023-10-20T02:46:16.403Z,98.32
2023-10-20T02:49:04.879Z,98.29
2023-10-20T02:51:52.031Z,98.07
2023-10-20T02:54:39.374Z,98.14
2023-10-20T02:57:26.501Z,97.78
2023-10-20T03:00:18.707Z,98.04
2023-10-20T03:03:06.099Z,98.10
2023-10-20T03:05:53.337Z,98.03
2023-10-20T03:08:41.223Z,98.12
2023-10-20T03:11:28.619Z,98.00
2023-10-20T03:14:15.862Z,98.28
2023-10-20T03:17:03.247Z,98.11
2023-10-20T03:19:50.614Z,98.08
2023-10-20T03:22:37.973Z,98.06
2023-10-20T03:25:25.614Z,98.18
2023-10-20T03:28:13.107Z,98.26
2023-10-20T03:31:03.424Z,98.51
2023-10-20T03:33:50.934Z,98.45
2023-10-20T03:36:38.685Z,98.77
2023-10-20T03:39:27.522Z,98.83
2023-10-20T03:42:15.117Z,99.10
2023-10-20T03:45:09.133Z,98.68
2023-10-20T03:47:56.514Z,98.67
2023-10-20T03:50:44.896Z,98.69
2023-10-20T03:53:40.387Z,98.22
2023-10-20T03:56:28.683Z,98.19
2023-10-20T03:59:17.004Z,98.34
2023-10-20T04:02:04.368Z,98.43
2023-10-20T04:04:51.726Z,98.32
2023-10-20T04:07:39.076Z,98.56
2023-10-20T04:10:26.511Z,98.65
2023-10-20T04:13:13.684Z,98.91
2023-10-20T04:16:17.771Z,98.79
2023-10-20T04:19:06.898Z,98.90
2023-10-20T04:21:54.974Z,98.89
2023-10-20T04:24:42.709Z,98.80
2023-10-20T04:27:48.162Z,99.13
2023-10-20T04:30:54.727Z,98.81
2023-10-20T04:34:00.556Z,98.83
2023-10-20T04:37:08.566Z,99.32
2023-10-20T04:40:14.950Z,99.19
2023-10-20T04:43:25.292Z,98.62
2023-10-20T04:46:31.173Z,98.60
2023-10-20T04:49:36.990Z,98.71
2023-10-20T04:52:47.114Z,98.67
2023-10-20T04:55:53.000Z,99.05
2023-10-20T04:58:51.723Z,99.32
2023-10-20T05:01:48.948Z,99.51
2023-10-20T05:04:43.202Z,99.52
2023-10-20T05:07:31.195Z,99.52
2023-10-20T05:10:20.063Z,99.52
2023-10-20T05:13:07.238Z,99.55
2023-10-20T05:15:54.685Z,99.69
2023-10-20T05:18:43.065Z,99.86
2023-10-20T05:21:38.688Z,99.51
2023-10-20T05:24:26.223Z,99.49
2023-10-20T05:27:16.312Z,99.81
2023-10-20T05:31:04.345Z,99.85
2023-10-20T05:33:59.138Z,99.86
2023-10-20T05:36:46.357Z,99.99
2023-10-20T05:39:33.932Z,100.00
2023-10-20T05:42:21.401Z,100.00
2023-10-20T05:45:17.714Z,99.98
2023-10-20T05:48:06.520Z,100.00
2023-10-20T05:50:58.173Z,100.00
2023-10-20T05:53:45.427Z,100.00
2023-10-20T05:56:32.806Z,99.99
2023-10-20T05:59:20.001Z,99.99
2023-10-20T06:02:08.083Z,100.00
2023-10-20T06:04:55.461Z,100.00
2023-10-20T06:07:43.933Z,100.00
2023-10-20T06:10:31.121Z,100.00
2023-10-20T06:13:18.674Z,100.00
2023-10-20T06:16:11.767Z,100.00
2023-10-20T06:18:59.376Z,100.00
2023-10-20T06:21:46.768Z,99.95
2023-10-20T06:24:34.203Z,99.95
2023-10-20T06:27:21.611Z,99.94
2023-10-20T06:30:15.211Z,99.94
2023-10-20T06:33:17.339Z,100.00
2023-10-20T06:36:11.442Z,100.00
2023-10-20T06:38:58.662Z,100.00
2023-10-20T06:41:45.979Z,100.00
2023-10-20T06:44:35.400Z,100.00
2023-10-20T06:47:22.691Z,100.00
2023-10-20T06:50:12.732Z,100.00
2023-10-20T06:53:00.178Z,100.00
2023-10-20T06:56:04.767Z,100.00
2023-10-20T06:58:55.193Z,100.00
2023-10-20T07:01:45.192Z,100.00
2023-10-20T07:04:33.380Z,100.00
2023-10-20T07:07:20.843Z,100.00
2023-10-20T07:10:11.098Z,100.00
2023-10-20T07:12:58.267Z,100.00
2023-10-20T07:15:45.482Z,100.00
2023-10-20T07:18:32.718Z,100.00
2023-10-20T07:21:19.938Z,100.00
2023-10-20T07:24:07.678Z,100.00
2023-10-20T07:26:55.213Z,100.00
2023-10-20T07:29:45.660Z,100.00
2023-10-20T07:32:34.680Z,100.00
2023-10-20T07:35:22.364Z,100.00
2023-10-20T07:38:09.597Z,100.00
2023-10-20T07:40:56.810Z,100.00
2023-10-20T07:43:43.963Z,100.00
2023-10-20T07:46:31.810Z,100.00
2023-10-20T07:49:18.965Z,100.00
2023-10-20T07:52:06.144Z,100.00
2023-10-20T07:54:53.386Z,100.00
2023-10-20T07:57:40.517Z,100.00
2023-10-20T08:00:27.737Z,100.00
2023-10-20T08:03:15.193Z,100.00
2023-10-20T08:06:03.842Z,100.00
2023-10-20T08:08:51.554Z,100.00
2023-10-20T08:11:40.117Z,100.00
2023-10-20T08:14:27.410Z,100.00
2023-10-20T08:17:14.888Z,100.00
2023-10-20T08:20:02.186Z,100.00
2023-10-20T08:22:49.418Z,100.00
2023-10-20T08:25:38.151Z,100.00
2023-10-20T08:28:28.093Z,100.00
2023-10-20T08:31:18.054Z,100.00
2023-10-20T08:34:06.116Z,100.00
2023-10-20T08:36:53.379Z,100.00
2023-10-20T08:39:40.521Z,100.00
2023-10-20T08:42:29.686Z,100.00
2023-10-20T08:45:16.825Z,100.00
2023-10-20T08:48:06.535Z,100.00
2023-10-20T08:50:56.893Z,100.00
2023-10-20T08:53:45.390Z,100.00
2023-10-20T08:56:32.572Z,100.00
2023-10-20T08:59:19.882Z,100.00
2023-10-20T09:02:08.769Z,100.00
2023-10-20T09:04:55.933Z,100.00
2023-10-20T09:07:53.782Z,100.00
2023-10-20T09:10:46.170Z,100.00
2023-10-20T09:13:35.212Z,100.00
2023-10-20T09:16:23.751Z,100.00
2023-10-20T09:19:11.906Z,100.00
2023-10-20T09:21:59.217Z,100.00
2023-10-20T09:24:48.608Z,100.00
2023-10-20T09:27:36.603Z,100.00
2023-10-20T09:30:24.932Z,100.00
2023-10-20T09:33:14.744Z,100.00
2023-10-20T09:36:02.694Z,100.00
2023-10-20T09:38:52.469Z,100.00
2023-10-20T09:41:45.283Z,100.00
2023-10-20T09:44:48.201Z,100.00
2023-10-20T09:47:37.491Z,100.00
2023-10-20T09:50:24.898Z,100.00
2023-10-20T09:53:12.360Z,100.00
2023-10-20T09:55:59.651Z,100.00
2023-10-20T09:58:47.017Z,100.00
2023-10-20T10:01:34.279Z,100.00
2023-10-20T10:04:31.504Z,100.00
2023-10-20T10:07:27.635Z,100.00
2023-10-20T10:10:21.319Z,100.00
2023-10-20T10:13:09.993Z,100.00
2023-10-20T10:15:59.135Z,100.00
2023-10-20T10:18:46.795Z,100.00
2023-10-20T10:21:38.757Z,100.00
2023-10-20T10:24:26.239Z,100.00
2023-10-20T10:27:16.789Z,100.00
2023-10-20T10:30:07.450Z,100.00
2023-10-20T10:32:55.628Z,100.00
2023-10-20T10:35:43.068Z,100.00
2023-10-20T10:38:32.327Z,100.00
2023-10-20T10:41:24.208Z,100.00
2023-10-20T10:44:11.913Z,100.00
2023-10-20T10:46:59.580Z,100.00
2023-10-20T10:49:50.248Z,100.00
2023-10-20T10:52:37.465Z,99.99
2023-10-20T10:55:25.373Z,99.99
2023-10-20T10:58:14.516Z,99.98
2023-10-20T11:01:03.277Z,99.99
2023-10-20T11:03:50.824Z,99.95
2023-10-20T11:06:38.710Z,100.00
2023-10-20T11:09:28.047Z,99.75
2023-10-20T11:12:15.215Z,99.75
2023-10-20T11:15:06.820Z,99.97
2023-10-20T11:17:56.046Z,99.95
2023-10-20T11:20:48.133Z,99.77
2023-10-20T11:23:36.087Z,99.95
2023-10-20T11:26:25.296Z,100.00
2023-10-20T11:29:12.656Z,99.98
2023-10-20T11:32:08.279Z,100.00
2023-10-20T11:34:55.578Z,100.00
2023-10-20T11:37:42.786Z,100.00
2023-10-20T11:40:29.952Z,100.00
2023-10-20T11:43:17.173Z,100.00
2023-10-20T11:46:06.403Z,100.00
2023-10-20T11:48:53.778Z,100.00
2023-10-20T11:51:41.099Z,100.00
2023-10-20T11:54:28.525Z,100.00
2023-10-20T11:57:16.167Z,100.00
2023-10-20T12:00:08.070Z,100.00
2023-10-20T12:03:01.144Z,100.00
2023-10-20T12:05:48.569Z,100.00
2023-10-20T12:08:35.816Z,100.00
2023-10-20T12:11:23.107Z,100.00
2023-10-20T12:14:10.335Z,100.00
2023-10-20T12:16:57.952Z,100.00
2023-10-20T12:19:45.967Z,100.00
2023-10-20T12:22:35.053Z,100.00
2023-10-20T12:25:22.530Z,100.00
2023-10-20T12:28:11.135Z,100.00
2023-10-20T12:31:00.111Z,100.00
2023-10-20T12:33:47.646Z,100.00
2023-10-20T12:36:36.388Z,100.00
2023-10-20T12:39:23.541Z,100.00
2023-10-20T12:42:10.850Z,100.00
2023-10-20T12:45:01.237Z,100.00
2023-10-20T12:47:48.610Z,100.00
2023-10-20T12:50:36.701Z,100.00
2023-10-20T12:53:24.312Z,100.00
2023-10-20T12:56:11.617Z,100.00
2023-10-20T12:58:59.170Z,100.00
2023-10-20T13:01:47.476Z,100.00
2023-10-20T13:04:34.867Z,100.00
2023-10-20T13:07:24.417Z,100.00
2023-10-20T13:10:11.767Z,100.00
2023-10-20T13:13:00.736Z,100.00
2023-10-20T13:15:48.016Z,100.00
2023-10-20T13:18:36.355Z,100.00
2023-10-20T13:21:24.871Z,100.00
2023-10-20T13:24:12.270Z,100.00
2023-10-20T13:27:00.625Z,100.00
2023-10-20T13:29:47.902Z,100.00
2023-10-20T13:32:35.124Z,100.00
2023-10-20T13:35:22.392Z,100.00
2023-10-20T13:40:59.999Z,100.00
2023-10-20T13:43:47.226Z,100.00
2023-10-20T13:46:34.679Z,100.00
2023-10-20T13:49:21.967Z,100.00
2023-10-20T13:52:09.267Z,100.00
2023-10-20T13:54:56.897Z,100.00
2023-10-20T13:57:44.223Z,100.00
2023-10-20T14:00:34.242Z,100.00
2023-10-20T14:03:21.920Z,100.00
2023-10-20T14:06:11.205Z,100.00
2023-10-20T14:08:59.006Z,100.00
2023-10-20T14:11:46.605Z,100.00
2023-10-20T14:14:33.863Z,100.00
2023-10-20T14:17:21.198Z,100.00
2023-10-20T14:20:09.486Z,100.00
2023-10-20T14:22:56.620Z,100.00
2023-10-20T14:25:44.673Z,100.00
2023-10-20T14:28:32.140Z,100.00
2023-10-20T14:31:21.122Z,100.00
2023-10-20T14:34:08.354Z,100.00
2023-10-20T14:36:55.550Z,100.00
2023-10-20T14:39:42.880Z,100.00
2023-10-20T14:42:30.051Z,100.00
2023-10-20T14:45:17.594Z,100.00
2023-10-20T14:48:05.156Z,100.00
2023-10-20T14:50:53.346Z,100.00
2023-10-20T14:53:42.514Z,100.00
2023-10-20T14:56:29.817Z,100.00
2023-10-20T14:59:17.131Z,100.00
2023-10-20T15:02:04.488Z,100.00
2023-10-20T15:04:51.787Z,100.00
2023-10-20T15:07:40.697Z,100.00
2023-10-20T15:10:28.773Z,100.00
2023-10-20T15:13:15.973Z,100.00
2023-10-20T15:16:05.229Z,100.00
2023-10-20T15:18:52.718Z,100.00
2023-10-20T15:21:40.053Z,100.00
2023-10-20T15:24:27.338Z,100.00
2023-10-20T15:27:15.760Z,100.00
2023-10-20T15:30:05.290Z,100.00
2023-10-20T15:32:52.551Z,100.00
2023-10-20T15:35:40.992Z,100.00
2023-10-20T15:38:29.130Z,100.00
2023-10-20T15:41:18.430Z,100.00
2023-10-20T15:44:05.612Z,100.00
2023-10-20T15:46:52.784Z,100.00
2023-10-20T15:49:40.615Z,100.00
2023-10-20T15:52:28.042Z,100.00
2023-10-20T15:55:17.231Z,100.00
2023-10-20T15:58:04.910Z,100.00
2023-10-20T16:00:58.232Z,100.00
2023-10-20T16:03:46.041Z,100.00
2023-10-20T16:06:33.557Z,100.00
2023-10-20T16:09:23.662Z,100.00
2023-10-20T16:12:10.924Z,100.00
2023-10-20T16:14:58.129Z,100.00
2023-10-20T16:17:45.682Z,100.00
2023-10-20T16:20:33.698Z,100.00
2023-10-20T16:23:22.137Z,100.00
2023-10-20T16:26:11.812Z,100.00
2023-10-20T16:28:59.006Z,100.00
2023-10-20T16:31:46.202Z,100.00
2023-10-20T16:34:33.570Z,100.00
2023-10-20T16:37:20.761Z,100.00
2023-10-20T16:40:08.563Z,100.00
2023-10-20T16:42:55.883Z,100.00
2023-10-20T16:45:43.219Z,100.00
2023-10-20T16:48:34.418Z,100.00
2023-10-20T16:51:21.681Z,100.00
2023-10-20T16:54:08.902Z,100.00
2023-10-20T16:56:56.171Z,100.00
2023-10-20T16:59:43.446Z,100.00
2023-10-20T17:02:30.780Z,100.00
2023-10-20T17:05:18.180Z,100.00
2023-10-20T17:08:05.635Z,100.00
2023-10-20T17:10:52.817Z,100.00
2023-10-20T17:13:40.157Z,100.00
2023-10-20T17:16:27.422Z,100.00
2023-10-20T17:19:15.154Z,100.00
2023-10-20T17:22:03.826Z,100.00
2023-10-20T17:24:51.233Z,100.00
2023-10-20T17:27:38.448Z,100.00
2023-10-20T17:30:27.060Z,100.00
2023-10-20T17:33:14.503Z,100.00
2023-10-20T17:36:04.435Z,100.00
2023-10-20T17:38:54.641Z,100.00
2023-10-20T17:41:41.897Z,100.00
2023-10-20T17:44:29.264Z,100.00
2023-10-20T17:47:16.669Z,100.00
2023-10-20T17:50:05.409Z,100.00
2023-10-20T17:52:55.092Z,100.00
2023-10-20T17:55:42.509Z,100.00
2023-10-20T17:58:30.893Z,100.00
2023-10-20T18:01:18.252Z,100.00
2023-10-20T18:04:06.091Z,100.00
2023-10-20T18:06:53.523Z,100.00
2023-10-20T18:09:40.697Z,100.00
2023-10-20T18:12:28.517Z,100.00
2023-10-20T18:15:16.850Z,100.00
2023-10-20T18:18:04.495Z,100.00
2023-10-20T18:20:55.871Z,100.00
2023-10-20T18:23:43.424Z,100.00
2023-10-20T18:26:30.838Z,100.00
2023-10-20T18:29:18.357Z,100.00
2023-10-20T18:32:06.586Z,100.00
2023-10-20T18:34:53.858Z,100.00
2023-10-20T18:37:41.266Z,100.00
2023-10-20T18:40:28.708Z,100.00
2023-10-20T18:43:24.207Z,100.00
2023-10-20T18:46:11.945Z,100.00
2023-10-20T18:48:59.677Z,100.00
2023-10-20T18:51:47.295Z,100.00
2023-10-20T18:54:34.841Z,100.00
2023-10-20T18:57:22.262Z,100.00
2023-10-20T19:00:11.035Z,100.00
2023-10-20T19:02:58.920Z,100.00
2023-10-20T19:05:49.044Z,100.00
2023-10-20T19:08:37.613Z,100.00
2023-10-20T19:11:25.212Z,100.00
2023-10-20T19:14:12.707Z,100.00
2023-10-20T19:17:00.286Z,100.00
2023-10-20T19:19:50.602Z,100.00
2023-10-20T19:22:38.099Z,100.00
2023-10-20T19:25:25.548Z,100.00
2023-10-20T19:28:13.369Z,100.00
2023-10-20T19:31:02.117Z,100.00
2023-10-20T19:33:50.875Z,100.00
2023-10-20T19:36:38.652Z,100.00
2023-10-20T19:39:26.220Z,100.00
2023-10-20T19:42:14.017Z,100.00
2023-10-20T19:45:02.383Z,100.00
2023-10-20T19:47:50.183Z,100.00
2023-10-20T19:50:41.481Z,100.00
2023-10-20T19:53:29.145Z,100.00
2023-10-20T19:56:16.640Z,100.00
2023-10-20T19:59:04.357Z,100.00
2023-10-20T20:01:51.926Z,100.00
2023-10-20T20:04:39.540Z,100.00
2023-10-20T20:07:28.177Z,100.00
2023-10-20T20:10:16.020Z,100.00
2023-10-20T20:13:04.459Z,100.00
2023-10-20T20:15:51.951Z,100.00
2023-10-20T20:18:40.342Z,100.00
2023-10-20T20:21:28.054Z,100.00
2023-10-20T20:24:15.561Z,100.00
2023-10-20T20:27:03.376Z,100.00
2023-10-20T20:29:50.896Z,100.00
2023-10-20T20:32:38.166Z,100.00
2023-10-20T20:35:25.366Z,100.00
2023-10-20T20:38:12.814Z,100.00
2023-10-20T20:41:04.661Z,100.00
2023-10-20T20:43:51.905Z,100.00
2023-10-20T20:46:39.265Z,100.00
2023-10-20T20:49:27.201Z,100.00
2023-10-20T20:52:14.373Z,100.00
2023-10-20T20:55:01.821Z,100.00
2023-10-20T20:57:49.063Z,100.00
2023-10-20T21:00:36.696Z,100.00
2023-10-20T21:03:24.056Z,100.00
2023-10-20T21:06:11.559Z,100.00
2023-10-20T21:08:58.830Z,100.00
2023-10-20T21:11:46.100Z,100.00
2023-10-20T21:14:33.288Z,100.00
2023-10-20T21:17:20.518Z,100.00
2023-10-20T21:20:08.886Z,100.00
2023-10-20T21:22:56.034Z,100.00
2023-10-20T21:25:43.356Z,100.00
2023-10-20T21:28:30.539Z,100.00
2023-10-20T21:31:17.948Z,100.00
2023-10-20T21:34:05.155Z,100.00
2023-10-20T21:36:52.340Z,100.00
2023-10-20T21:39:39.617Z,100.00
2023-10-20T21:42:26.922Z,100.00
2023-10-20T21:45:14.171Z,100.00
2023-10-20T21:48:01.548Z,100.00
2023-10-20T21:50:55.628Z,100.00
2023-10-20T21:53:42.945Z,100.00
2023-10-20T21:56:30.198Z,100.00
2023-10-20T21:59:17.444Z,100.00
2023-10-20T22:02:09.786Z,100.00
2023-10-20T22:04:57.713Z,100.00
2023-10-20T22:07:44.914Z,100.00
2023-10-20T22:10:32.193Z,100.00
2023-10-20T22:13:19.976Z,100.00
2023-10-20T22:16:07.589Z,100.00
2023-10-20T22:18:54.808Z,100.00
2023-10-20T22:21:42.085Z,100.00
2023-10-20T22:24:29.259Z,100.00
2023-10-20T22:27:16.645Z,100.00
2023-10-20T22:30:06.254Z,100.00
2023-10-20T22:32:53.817Z,100.00
2023-10-20T22:35:41.219Z,100.00
2023-10-20T22:38:28.509Z,100.00
2023-10-20T22:41:15.785Z,100.00
2023-10-20T22:44:03.199Z,100.00
2023-10-20T22:46:50.454Z,100.00
2023-10-20T22:49:37.892Z,100.00
2023-10-20T22:52:25.142Z,100.00
2023-10-20T22:55:13.226Z,100.00
2023-10-20T22:58:00.499Z,100.00
2023-10-20T23:00:47.816Z,100.00
2023-10-20T23:03:35.535Z,100.00
2023-10-20T23:06:22.787Z,100.00
2023-10-20T23:09:10.022Z,100.00
2023-10-20T23:11:57.364Z,100.00
2023-10-20T23:14:44.649Z,100.00
2023-10-20T23:17:31.912Z,100.00
2023-10-20T23:20:19.089Z,100.00
2023-10-20T23:23:06.225Z,100.00
2023-10-20T23:25:53.950Z,100.00
2023-10-20T23:28:41.153Z,100.00
2023-10-20T23:31:28.468Z,100.00
2023-10-20T23:34:15.660Z,100.00
2023-10-20T23:37:03.773Z,100.00
2023-10-20T23:39:51.341Z,100.00
2023-10-20T23:42:38.532Z,100.00
2023-10-20T23:45:25.761Z,100.00
2023-10-20T23:48:13.430Z,100.00
2023-10-20T23:51:00.714Z,100.00
2023-10-20T23:53:48.437Z,100.00
2023-10-20T23:56:35.636Z,100.00
2023-10-20T23:59:22.828Z,100.00
